createdAt,value
2017-04-10T00:01:00.224Z,11.90
2017-04-10T00:02:06.147Z,11.90
2017-04-10T00:03:12.856Z,11.80
2017-04-10T00:05:24.897Z,11.80
2017-04-10T00:06:31.717Z,11.80
2017-04-10T00:07:38.417Z,11.90
2017-04-10T00:08:44.356Z,11.90
2017-04-10T00:09:50.433Z,11.90
2017-04-10T00:10:56.580Z,11.90
2017-04-10T00:12:03.442Z,11.90
2017-04-10T00:13:09.632Z,12.00
2017-04-10T00:14:15.755Z,12.00
2017-04-10T00:15:21.876Z,11.90
2017-04-10T00:16:27.969Z,11.90
2017-04-10T00:17:34.139Z,11.90
2017-04-10T00:18:40.215Z,11.90
2017-04-10T00:19:46.267Z,11.90
2017-04-10T00:20:52.351Z,11.80
2017-04-10T00:21:58.344Z,11.80
2017-04-10T00:23:04.643Z,11.80
2017-04-10T00:24:11.400Z,11.80
2017-04-10T00:25:17.502Z,11.80
2017-04-10T00:26:23.550Z,11.80
2017-04-10T00:27:29.566Z,11.80
2017-04-10T00:28:35.715Z,11.90
2017-04-10T00:29:41.746Z,11.90
2017-04-10T00:30:47.740Z,11.80
2017-04-10T00:31:53.705Z,11.80
2017-04-10T00:32:59.885Z,11.80
2017-04-10T00:34:06.156Z,11.80
2017-04-10T00:35:13.259Z,11.80
2017-04-10T00:36:20.109Z,11.80
2017-04-10T00:37:26.864Z,11.80
2017-04-10T00:38:33.693Z,11.80
2017-04-10T00:39:39.841Z,11.80
2017-04-10T00:40:45.860Z,11.80
2017-04-10T00:41:51.824Z,11.80
2017-04-10T00:42:58.580Z,11.80
2017-04-10T00:44:04.770Z,11.80
2017-04-10T00:45:11.009Z,11.80
2017-04-10T00:46:17.031Z,11.80
2017-04-10T00:47:23.081Z,11.80
2017-04-10T00:48:29.066Z,11.80
2017-04-10T00:49:36.041Z,11.80
2017-04-10T00:50:42.154Z,11.80
2017-04-10T00:51:49.085Z,11.80
2017-04-10T00:52:55.912Z,11.70
2017-04-10T00:54:01.928Z,11.80
2017-04-10T00:55:08.092Z,11.70
2017-04-10T00:56:14.821Z,11.70
2017-04-10T00:57:21.408Z,11.60
2017-04-10T00:58:27.468Z,11.70
2017-04-10T00:59:33.644Z,11.60
2017-04-10T01:00:39.571Z,11.60
2017-04-10T01:01:45.680Z,11.60
2017-04-10T01:02:52.741Z,11.60
2017-04-10T01:03:58.724Z,11.60
2017-04-10T01:05:05.567Z,11.50
2017-04-10T01:06:11.650Z,11.50
2017-04-10T01:07:17.960Z,11.50
2017-04-10T01:08:24.762Z,11.50
2017-04-10T01:09:30.975Z,11.50
2017-04-10T01:10:36.952Z,11.60
2017-04-10T01:11:42.942Z,11.50
2017-04-10T01:12:48.986Z,11.60
2017-04-10T01:13:54.944Z,11.60
2017-04-10T01:15:01.094Z,11.50
2017-04-10T01:16:07.850Z,11.50
2017-04-10T01:17:14.810Z,11.50
2017-04-10T01:18:20.971Z,11.50
2017-04-10T01:19:27.861Z,11.50
2017-04-10T01:20:34.011Z,11.50
2017-04-10T01:21:39.936Z,11.50
2017-04-10T01:22:45.904Z,11.50
2017-04-10T01:23:52.669Z,11.40
2017-04-10T01:24:58.648Z,11.40
2017-04-10T01:26:04.603Z,11.50
2017-04-10T01:27:11.534Z,11.40
2017-04-10T01:28:17.548Z,11.50
2017-04-10T01:29:23.849Z,11.40
2017-04-10T01:30:29.877Z,11.40
2017-04-10T01:31:35.947Z,11.40
2017-04-10T01:32:41.991Z,11.40
2017-04-10T01:33:47.944Z,11.40
2017-04-10T01:34:54.145Z,11.40
2017-04-10T01:36:00.119Z,11.40
2017-04-10T01:37:06.129Z,11.40
2017-04-10T01:38:12.212Z,11.40
2017-04-10T01:39:18.116Z,11.40
2017-04-10T01:40:24.164Z,11.40
2017-04-10T01:41:30.845Z,11.40
2017-04-10T01:42:36.836Z,11.50
2017-04-10T01:43:42.921Z,11.40
2017-04-10T01:44:49.777Z,11.50
2017-04-10T01:45:56.586Z,11.50
2017-04-10T01:47:03.421Z,11.50
2017-04-10T01:48:10.216Z,11.50
2017-04-10T01:49:16.563Z,11.50
2017-04-10T01:50:22.525Z,11.50
2017-04-10T01:51:28.777Z,11.50
2017-04-10T01:52:35.503Z,11.50
2017-04-10T01:53:42.224Z,11.50
2017-04-10T01:54:49.055Z,11.50
2017-04-10T01:55:55.216Z,11.50
2017-04-10T01:57:01.295Z,11.60
2017-04-10T01:58:08.037Z,11.60
2017-04-10T01:59:14.072Z,11.60
2017-04-10T02:00:20.077Z,11.60
2017-04-10T02:01:26.084Z,11.70
2017-04-10T02:02:33.281Z,11.60
2017-04-10T02:03:39.368Z,11.60
2017-04-10T02:04:46.068Z,11.70
2017-04-10T02:05:52.750Z,11.70
2017-04-10T02:06:58.776Z,11.70
2017-04-10T02:08:05.920Z,11.70
2017-04-10T02:09:12.161Z,11.70
2017-04-10T02:10:18.200Z,11.70
2017-04-10T02:11:24.073Z,11.70
2017-04-10T02:12:30.059Z,11.80
2017-04-10T02:13:36.441Z,11.70
2017-04-10T02:14:42.480Z,11.70
2017-04-10T02:15:48.441Z,11.80
2017-04-10T02:16:54.537Z,11.90
2017-04-10T02:18:00.432Z,11.80
2017-04-10T02:19:06.552Z,11.80
2017-04-10T02:20:12.558Z,11.70
2017-04-10T02:21:18.648Z,11.80
2017-04-10T02:22:24.771Z,11.80
2017-04-10T02:24:37.373Z,11.80
2017-04-10T02:25:43.404Z,11.80
2017-04-10T02:26:49.451Z,11.80
2017-04-10T02:27:56.224Z,11.70
2017-04-10T02:29:02.308Z,11.70
2017-04-10T02:30:08.634Z,11.70
2017-04-10T02:31:15.385Z,11.70
2017-04-10T02:32:21.454Z,11.70
2017-04-10T02:33:27.632Z,11.70
2017-04-10T02:34:33.642Z,11.70
2017-04-10T02:35:39.745Z,11.70
2017-04-10T02:36:45.802Z,11.70
2017-04-10T02:37:52.623Z,11.70
2017-04-10T02:38:58.724Z,11.70
2017-04-10T02:40:04.705Z,11.70
2017-04-10T02:41:10.711Z,11.70
2017-04-10T02:42:16.818Z,11.80
2017-04-10T02:43:22.735Z,11.80
2017-04-10T02:44:28.910Z,11.80
2017-04-10T02:45:34.992Z,11.80
2017-04-10T02:46:41.010Z,11.80
2017-04-10T02:47:47.060Z,11.80
2017-04-10T02:48:53.096Z,11.80
2017-04-10T02:49:59.149Z,11.80
2017-04-10T02:51:05.077Z,11.80
2017-04-10T02:52:11.372Z,11.70
2017-04-10T02:53:18.062Z,11.80
2017-04-10T02:54:24.129Z,11.80
2017-04-10T02:55:30.281Z,11.80
2017-04-10T02:56:36.397Z,11.80
2017-04-10T02:57:42.463Z,11.80
2017-04-10T02:58:48.467Z,11.80
2017-04-10T02:59:54.472Z,11.80
2017-04-10T03:01:00.528Z,11.80
2017-04-10T03:02:06.444Z,11.80
2017-04-10T03:03:12.596Z,11.80
2017-04-10T03:04:18.664Z,11.80
2017-04-10T03:05:24.594Z,11.80
2017-04-10T03:06:30.639Z,11.80
2017-04-10T03:07:36.724Z,11.80
2017-04-10T03:08:42.979Z,11.80
2017-04-10T03:09:49.768Z,11.80
2017-04-10T03:10:55.853Z,11.80
2017-04-10T03:13:42.536Z,11.90
2017-04-10T03:14:49.342Z,11.90
2017-04-10T03:15:55.352Z,12.00
2017-04-10T03:20:09.212Z,12.10
2017-04-10T03:21:15.192Z,12.20
2017-04-10T03:22:21.186Z,12.20
2017-04-10T03:23:27.968Z,12.20
2017-04-10T03:24:34.665Z,12.20
2017-04-10T03:25:40.914Z,12.20
2017-04-10T03:26:46.825Z,12.20
2017-04-10T03:27:52.737Z,12.20
2017-04-10T03:28:58.779Z,12.30
2017-04-10T03:30:04.712Z,12.30
2017-04-10T03:31:10.737Z,12.30
2017-04-10T03:32:16.893Z,12.30
2017-04-10T03:33:22.845Z,12.30
2017-04-10T03:34:28.782Z,12.30
2017-04-10T03:35:34.779Z,12.30
2017-04-10T03:36:40.950Z,12.20
2017-04-10T03:37:46.989Z,12.20
2017-04-10T03:38:53.704Z,12.20
2017-04-10T03:39:59.775Z,12.20
2017-04-10T03:47:25.395Z,12.10
2017-04-10T03:48:31.443Z,12.00
2017-04-10T03:49:37.397Z,12.00
2017-04-10T03:50:44.133Z,12.00
2017-04-10T03:51:50.103Z,11.90
2017-04-10T03:52:56.391Z,12.00
2017-04-10T03:54:02.565Z,11.90
2017-04-10T03:55:08.526Z,11.90
2017-04-10T03:56:15.610Z,11.80
2017-04-10T03:57:21.706Z,11.90
2017-04-10T03:58:28.540Z,11.80
2017-04-10T03:59:35.392Z,11.80
2017-04-10T04:00:41.407Z,11.70
2017-04-10T04:01:47.433Z,11.70
2017-04-10T04:02:53.492Z,11.70
2017-04-10T04:03:59.604Z,11.70
2017-04-10T04:05:10.718Z,11.70
2017-04-10T04:06:16.576Z,11.60
2017-04-10T04:07:22.601Z,11.60
2017-04-10T04:08:28.652Z,11.50
2017-04-10T04:09:34.965Z,11.50
2017-04-10T04:10:40.999Z,11.50
2017-04-10T04:11:47.059Z,11.50
2017-04-10T04:12:53.862Z,11.40
2017-04-10T04:14:00.568Z,11.50
2017-04-10T04:15:07.392Z,11.50
2017-04-10T04:16:13.372Z,11.50
2017-04-10T04:17:19.296Z,11.60
2017-04-10T04:18:25.386Z,11.60
2017-04-10T04:19:31.582Z,11.60
2017-04-10T04:20:38.830Z,11.50
2017-04-10T04:21:44.796Z,11.50
2017-04-10T04:23:59.384Z,11.50
2017-04-10T04:25:05.635Z,11.50
2017-04-10T04:26:11.959Z,11.60
2017-04-10T04:27:18.062Z,11.60
2017-04-10T04:28:24.689Z,11.50
2017-04-10T04:29:30.757Z,11.50
2017-04-10T04:30:36.784Z,11.60
2017-04-10T04:31:43.933Z,11.50
2017-04-10T04:32:50.148Z,11.50
2017-04-10T04:33:56.101Z,11.50
2017-04-10T04:35:04.988Z,11.50
2017-04-10T04:36:11.019Z,11.50
2017-04-10T04:37:17.350Z,11.50
2017-04-10T04:38:23.261Z,11.50
2017-04-10T04:39:29.268Z,11.50
2017-04-10T04:40:35.869Z,11.50
2017-04-10T04:41:42.031Z,11.50
2017-04-10T04:42:47.992Z,11.50
2017-04-10T04:43:54.053Z,11.50
2017-04-10T04:45:00.179Z,11.50
2017-04-10T04:46:06.122Z,11.50
2017-04-10T04:47:12.152Z,11.50
2017-04-10T04:48:18.261Z,11.50
2017-04-10T04:49:24.310Z,11.40
2017-04-10T04:50:30.404Z,11.40
2017-04-10T04:51:36.415Z,11.40
2017-04-10T04:52:42.568Z,11.40
2017-04-10T04:53:48.714Z,11.40
2017-04-10T04:54:55.453Z,11.40
2017-04-10T04:56:01.645Z,11.40
2017-04-10T04:57:07.628Z,11.40
2017-04-10T04:58:17.642Z,11.40
2017-04-10T04:59:25.452Z,11.30
2017-04-10T05:00:31.373Z,11.30
2017-04-10T05:01:38.086Z,11.30
2017-04-10T05:02:44.197Z,11.20
2017-04-10T05:03:50.080Z,11.20
2017-04-10T05:04:56.349Z,11.20
2017-04-10T05:06:02.279Z,11.20
2017-04-10T05:07:08.316Z,11.20
2017-04-10T05:08:14.256Z,11.20
2017-04-10T05:09:20.285Z,11.20
2017-04-10T05:10:26.379Z,11.10
2017-04-10T05:11:32.443Z,11.10
2017-04-10T05:12:38.384Z,11.10
2017-04-10T05:14:50.611Z,11.10
2017-04-10T05:15:56.774Z,11.00
2017-04-10T05:17:02.740Z,11.00
2017-04-10T05:18:08.890Z,11.00
2017-04-10T05:19:15.144Z,11.00
2017-04-10T05:20:21.347Z,10.90
2017-04-10T05:21:28.229Z,10.90
2017-04-10T05:22:35.184Z,10.90
2017-04-10T05:23:41.180Z,10.90
2017-04-10T05:24:47.432Z,10.90
2017-04-10T05:25:53.586Z,10.80
2017-04-10T05:26:59.751Z,10.80
2017-04-10T05:28:06.361Z,10.90
2017-04-10T05:29:13.951Z,10.80
2017-04-10T05:30:21.033Z,10.80
2017-04-10T05:31:26.980Z,10.80
2017-04-10T05:32:32.951Z,10.90
2017-04-10T05:33:38.971Z,10.80
2017-04-10T05:34:45.158Z,10.80
2017-04-10T05:35:51.921Z,10.80
2017-04-10T05:36:58.222Z,10.80
2017-04-10T05:38:06.691Z,10.70
2017-04-10T05:39:12.711Z,10.80
2017-04-10T05:40:19.566Z,10.80
2017-04-10T05:41:27.508Z,10.80
2017-04-10T05:42:33.744Z,10.70
2017-04-10T05:43:40.610Z,10.70
2017-04-10T05:44:46.714Z,10.70
2017-04-10T05:45:52.763Z,10.70
2017-04-10T05:46:58.731Z,10.70
2017-04-10T05:48:04.728Z,10.70
2017-04-10T05:49:12.576Z,10.70
2017-04-10T05:50:18.540Z,10.60
2017-04-10T05:51:24.620Z,10.70
2017-04-10T05:53:38.491Z,10.70
2017-04-10T05:54:45.924Z,10.70
2017-04-10T05:55:53.795Z,10.80
2017-04-10T05:57:00.539Z,10.80
2017-04-10T05:58:06.829Z,10.80
2017-04-10T05:59:12.893Z,10.90
2017-04-10T06:00:19.618Z,10.80
2017-04-10T06:01:25.698Z,10.70
2017-04-10T06:02:31.783Z,10.70
2017-04-10T06:03:39.091Z,10.60
2017-04-10T06:04:45.962Z,10.60
2017-04-10T06:05:52.098Z,10.60
2017-04-10T06:06:58.125Z,10.50
2017-04-10T06:08:05.024Z,10.40
2017-04-10T06:09:10.977Z,10.40
2017-04-10T06:10:17.061Z,10.40
2017-04-10T06:11:23.852Z,10.20
2017-04-10T06:12:29.854Z,10.20
2017-04-10T06:13:36.649Z,10.20
2017-04-10T06:14:42.716Z,10.20
2017-04-10T06:15:48.828Z,10.10
2017-04-10T06:16:54.956Z,10.10
2017-04-10T06:18:01.610Z,10.10
2017-04-10T06:19:07.666Z,10.00
2017-04-10T06:20:14.188Z,9.90
2017-04-10T06:22:26.537Z,9.90
2017-04-10T06:23:32.959Z,10.00
2017-04-10T06:24:40.112Z,10.00
2017-04-10T06:25:46.085Z,10.00
2017-04-10T06:26:52.212Z,10.00
2017-04-10T06:27:58.426Z,9.90
2017-04-10T06:29:04.429Z,10.00
2017-04-10T06:30:11.161Z,9.90
2017-04-10T06:31:17.104Z,9.90
2017-04-10T06:32:23.419Z,9.90
2017-04-10T06:33:29.572Z,9.90
2017-04-10T06:34:35.800Z,9.90
2017-04-10T06:35:42.664Z,9.90
2017-04-10T06:36:48.717Z,9.90
2017-04-10T06:37:54.836Z,9.90
2017-04-10T06:39:00.992Z,9.80
2017-04-10T06:40:07.650Z,9.80
2017-04-10T06:41:13.746Z,9.70
2017-04-10T06:42:19.688Z,9.80
2017-04-10T06:43:25.886Z,9.70
2017-04-10T06:44:32.095Z,9.80
2017-04-10T06:45:37.960Z,9.80
2017-04-10T06:46:45.104Z,9.90
2017-04-10T06:47:51.821Z,9.90
2017-04-10T06:48:58.191Z,10.00
2017-04-10T06:50:05.013Z,9.90
2017-04-10T06:51:11.694Z,9.90
2017-04-10T06:52:17.891Z,9.90
2017-04-10T06:53:23.859Z,9.90
2017-04-10T06:54:31.069Z,9.90
2017-04-10T06:55:37.359Z,9.90
2017-04-10T06:56:44.155Z,9.90
2017-04-10T06:57:50.939Z,9.70
2017-04-10T06:58:57.273Z,9.70
2017-04-10T07:00:03.351Z,9.60
2017-04-10T07:01:10.632Z,9.60
2017-04-10T07:02:16.543Z,9.60
2017-04-10T07:03:22.613Z,9.60
2017-04-10T07:04:28.588Z,9.60
2017-04-10T07:05:34.671Z,9.50
2017-04-10T07:06:40.736Z,9.50
2017-04-10T07:07:46.762Z,9.50
2017-04-10T07:08:52.704Z,9.60
2017-04-10T07:09:58.736Z,9.50
2017-04-10T07:11:04.633Z,9.50
2017-04-10T07:12:10.783Z,9.50
2017-04-10T07:13:16.763Z,9.60
2017-04-10T07:14:24.506Z,9.60
2017-04-10T07:15:30.399Z,9.60
2017-04-10T07:16:36.401Z,9.60
2017-04-10T07:17:42.604Z,9.60
2017-04-10T07:18:48.597Z,9.60
2017-04-10T07:19:54.668Z,9.70
2017-04-10T07:21:00.564Z,9.60
2017-04-10T07:22:06.600Z,9.70
2017-04-10T07:23:13.692Z,9.60
2017-04-10T07:24:19.824Z,9.60
2017-04-10T07:25:25.916Z,9.70
2017-04-10T07:26:31.965Z,9.70
2017-04-10T07:27:37.963Z,9.70
2017-04-10T07:28:43.832Z,9.60
2017-04-10T07:29:49.901Z,9.70
2017-04-10T07:30:56.741Z,9.60
2017-04-10T07:32:02.819Z,9.60
2017-04-10T07:33:08.797Z,9.60
2017-04-10T07:34:15.566Z,9.60
2017-04-10T07:35:21.616Z,9.60
2017-04-10T07:36:27.596Z,9.60
2017-04-10T07:37:33.601Z,9.70
2017-04-10T07:38:39.576Z,9.70
2017-04-10T07:39:45.759Z,9.80
2017-04-10T07:40:51.793Z,9.70
2017-04-10T07:41:57.831Z,9.60
2017-04-10T07:43:04.604Z,9.60
2017-04-10T07:44:11.356Z,9.50
2017-04-10T07:45:18.121Z,9.50
2017-04-10T07:46:24.169Z,9.50
2017-04-10T07:47:30.288Z,9.60
2017-04-10T07:48:36.343Z,9.50
2017-04-10T07:49:43.390Z,9.50
2017-04-10T07:50:49.504Z,9.60
2017-04-10T07:51:55.732Z,9.70
2017-04-10T07:53:01.880Z,9.80
2017-04-10T07:54:07.960Z,9.70
2017-04-10T07:55:14.046Z,9.70
2017-04-10T07:56:20.220Z,9.70
2017-04-10T07:57:26.449Z,9.80
2017-04-10T07:58:33.103Z,9.70
2017-04-10T07:59:39.132Z,9.70
2017-04-10T08:00:45.267Z,9.70
2017-04-10T08:01:52.325Z,9.70
2017-04-10T08:02:59.052Z,9.70
2017-04-10T08:04:05.021Z,9.70
2017-04-10T08:05:11.544Z,9.80
2017-04-10T08:06:17.552Z,9.90
2017-04-10T08:08:29.914Z,9.90
2017-04-10T08:09:36.564Z,9.80
2017-04-10T08:10:42.619Z,9.80
2017-04-10T08:11:48.587Z,9.80
2017-04-10T08:12:54.660Z,9.90
2017-04-10T08:14:00.716Z,9.80
2017-04-10T08:15:06.753Z,9.90
2017-04-10T08:16:13.441Z,9.90
2017-04-10T08:17:19.403Z,9.90
2017-04-10T08:18:26.324Z,9.90
2017-04-10T08:19:33.046Z,9.80
2017-04-10T08:20:39.019Z,9.90
2017-04-10T08:21:45.784Z,9.70
2017-04-10T08:22:51.995Z,9.70
2017-04-10T08:23:57.941Z,9.60
2017-04-10T08:25:04.100Z,9.60
2017-04-10T08:26:10.586Z,9.60
2017-04-10T08:27:16.628Z,9.70
2017-04-10T08:28:22.748Z,9.70
2017-04-10T08:29:28.728Z,9.80
2017-04-10T08:30:35.403Z,9.90
2017-04-10T08:31:41.503Z,9.80
2017-04-10T08:32:47.604Z,9.80
2017-04-10T08:33:53.627Z,9.80
2017-04-10T08:34:59.794Z,9.70
2017-04-10T08:36:05.812Z,9.70
2017-04-10T08:37:11.944Z,9.80
2017-04-10T08:38:18.039Z,9.90
2017-04-10T08:39:24.334Z,10.00
2017-04-10T08:40:30.984Z,10.00
2017-04-10T08:41:36.860Z,9.90
2017-04-10T08:42:42.851Z,9.80
2017-04-10T08:43:49.644Z,9.50
2017-04-10T08:44:55.669Z,9.70
2017-04-10T08:46:02.474Z,9.70
2017-04-10T08:47:09.384Z,9.50
2017-04-10T08:48:15.516Z,9.50
2017-04-10T08:49:21.709Z,9.50
2017-04-10T08:50:27.868Z,9.40
2017-04-10T08:51:34.202Z,9.40
2017-04-10T08:52:40.427Z,9.40
2017-04-10T08:53:46.396Z,9.50
2017-04-10T08:54:52.360Z,9.50
2017-04-10T08:55:58.478Z,9.60
2017-04-10T08:57:04.647Z,9.60
2017-04-10T08:58:10.688Z,9.50
2017-04-10T08:59:16.964Z,9.50
2017-04-10T09:00:23.676Z,9.50
2017-04-10T09:01:30.739Z,9.50
2017-04-10T09:02:37.251Z,9.50
2017-04-10T09:03:43.439Z,9.50
2017-04-10T09:04:49.532Z,9.50
2017-04-10T09:05:55.598Z,9.60
2017-04-10T09:07:01.648Z,9.60
2017-04-10T09:08:07.674Z,9.70
2017-04-10T09:09:13.668Z,9.60
2017-04-10T09:10:19.690Z,9.40
2017-04-10T09:11:26.212Z,9.50
2017-04-10T09:12:33.092Z,9.40
2017-04-10T09:13:39.111Z,9.50
2017-04-10T09:14:45.041Z,9.50
2017-04-10T09:15:51.792Z,9.30
2017-04-10T09:16:57.884Z,9.20
2017-04-10T09:18:03.864Z,9.30
2017-04-10T09:19:10.223Z,9.30
2017-04-10T09:20:16.965Z,9.20
2017-04-10T09:21:23.187Z,9.30
2017-04-10T09:22:30.072Z,9.30
2017-04-10T09:23:36.239Z,9.50
2017-04-10T09:24:42.255Z,9.50
2017-04-10T09:25:48.317Z,9.60
2017-04-10T09:26:54.985Z,9.50
2017-04-10T09:28:00.909Z,9.40
2017-04-10T09:29:06.964Z,9.40
2017-04-10T09:30:13.849Z,9.40
2017-04-10T09:31:19.806Z,9.40
2017-04-10T09:32:26.953Z,9.30
2017-04-10T09:33:33.700Z,9.40
2017-04-10T09:34:39.888Z,9.40
2017-04-10T09:35:45.963Z,9.40
2017-04-10T09:36:52.033Z,9.50
2017-04-10T09:37:58.032Z,9.50
2017-04-10T09:39:04.332Z,9.50
2017-04-10T09:40:10.489Z,9.60
2017-04-10T09:41:16.716Z,9.60
2017-04-10T09:42:22.737Z,9.60
2017-04-10T09:43:28.805Z,9.70
2017-04-10T09:44:34.891Z,9.70
2017-04-10T09:49:00.763Z,9.70
2017-04-10T09:50:07.529Z,9.60
2017-04-10T09:51:13.615Z,9.60
2017-04-10T09:52:19.687Z,9.80
2017-04-10T09:53:25.785Z,10.00
2017-04-10T09:54:32.533Z,10.10
2017-04-10T09:55:38.491Z,10.30
2017-04-10T09:56:44.596Z,10.80
2017-04-10T09:57:50.509Z,10.90
2017-04-10T09:58:56.536Z,10.50
2017-04-10T10:00:02.873Z,10.50
2017-04-10T10:01:08.839Z,10.30
2017-04-10T10:02:15.728Z,10.00
2017-04-10T10:03:21.795Z,10.00
2017-04-10T10:04:27.852Z,9.90
2017-04-10T10:05:34.664Z,9.90
2017-04-10T10:06:40.717Z,10.10
2017-04-10T10:07:46.781Z,10.50
2017-04-10T10:08:52.863Z,10.80
2017-04-10T10:09:58.968Z,10.80
2017-04-10T10:11:05.076Z,10.60
2017-04-10T10:13:19.175Z,10.80
2017-04-10T10:14:25.257Z,10.80
2017-04-10T10:15:31.376Z,10.70
2017-04-10T10:16:37.388Z,11.00
2017-04-10T10:17:43.422Z,11.10
2017-04-10T10:18:49.578Z,11.10
2017-04-10T10:19:55.573Z,11.10
2017-04-10T10:21:01.615Z,10.90
2017-04-10T10:22:08.494Z,10.80
2017-04-10T10:23:15.343Z,10.80
2017-04-10T10:24:21.323Z,10.60
2017-04-10T10:25:27.350Z,10.80
2017-04-10T10:26:33.287Z,10.90
2017-04-10T10:27:39.277Z,10.70
2017-04-10T10:28:45.965Z,10.50
2017-04-10T10:29:51.944Z,10.50
2017-04-10T10:30:57.980Z,10.50
2017-04-10T10:32:04.051Z,10.40
2017-04-10T10:33:10.128Z,10.40
2017-04-10T10:34:16.196Z,10.40
2017-04-10T10:35:22.223Z,10.50
2017-04-10T10:36:28.308Z,10.50
2017-04-10T10:37:34.460Z,10.40
2017-04-10T10:38:40.731Z,10.40
2017-04-10T10:39:47.501Z,10.50
2017-04-10T10:40:54.372Z,10.40
2017-04-10T10:43:06.531Z,10.30
2017-04-10T10:44:12.685Z,10.30
2017-04-10T10:45:18.671Z,10.10
2017-04-10T10:46:24.607Z,10.20
2017-04-10T10:47:30.968Z,10.20
2017-04-10T10:48:38.211Z,10.10
2017-04-10T10:49:44.418Z,10.10
2017-04-10T10:50:50.281Z,10.10
2017-04-10T10:51:56.293Z,10.20
2017-04-10T10:53:02.227Z,10.20
2017-04-10T10:54:08.315Z,10.20
2017-04-10T10:55:14.571Z,10.10
2017-04-10T10:56:21.248Z,10.30
2017-04-10T10:57:27.385Z,10.20
2017-04-10T10:58:34.120Z,10.20
2017-04-10T10:59:40.056Z,10.10
2017-04-10T11:00:46.038Z,10.30
2017-04-10T11:01:51.948Z,10.20
2017-04-10T11:02:58.044Z,10.20
2017-04-10T11:04:04.736Z,10.20
2017-04-10T11:05:10.916Z,10.20
2017-04-10T11:06:17.177Z,10.30
2017-04-10T11:07:23.178Z,10.30
2017-04-10T11:08:29.545Z,10.60
2017-04-10T11:09:36.221Z,10.50
2017-04-10T11:10:43.089Z,10.70
2017-04-10T11:11:49.854Z,10.60
2017-04-10T11:12:55.892Z,10.30
2017-04-10T11:14:01.877Z,10.30
2017-04-10T11:15:08.015Z,10.40
2017-04-10T11:16:14.751Z,10.20
2017-04-10T11:17:21.767Z,10.30
2017-04-10T11:18:28.459Z,10.20
2017-04-10T11:19:34.672Z,10.10
2017-04-10T11:20:41.473Z,10.10
2017-04-10T11:21:47.664Z,10.20
2017-04-10T11:22:53.647Z,10.10
2017-04-10T11:23:59.744Z,10.10
2017-04-10T11:25:05.696Z,10.10
2017-04-10T11:26:11.784Z,10.00
2017-04-10T11:27:17.699Z,10.00
2017-04-10T11:28:23.921Z,10.10
2017-04-10T11:29:29.943Z,10.30
2017-04-10T11:30:36.020Z,10.20
2017-04-10T11:31:41.969Z,10.20
2017-04-10T11:32:48.013Z,10.30
2017-04-10T11:33:54.119Z,10.20
2017-04-10T11:35:00.148Z,10.20
2017-04-10T11:36:06.981Z,10.10
2017-04-10T11:37:12.844Z,10.00
2017-04-10T11:38:18.897Z,10.10
2017-04-10T11:39:24.995Z,10.10
2017-04-10T11:40:31.112Z,10.20
2017-04-10T11:41:37.252Z,10.30
2017-04-10T11:42:43.280Z,10.20
2017-04-10T11:43:49.419Z,10.10
2017-04-10T11:44:55.524Z,10.10
2017-04-10T11:46:02.416Z,10.10
2017-04-10T11:47:08.624Z,10.30
2017-04-10T11:48:14.751Z,10.40
2017-04-10T11:49:20.896Z,10.50
2017-04-10T11:50:26.940Z,10.50
2017-04-10T11:51:33.033Z,10.50
2017-04-10T11:52:39.852Z,10.30
2017-04-10T11:53:45.872Z,10.30
2017-04-10T11:54:51.803Z,10.30
2017-04-10T11:57:13.671Z,10.30
2017-04-10T11:58:19.644Z,10.30
2017-04-10T11:59:25.785Z,10.10
2017-04-10T12:00:31.980Z,10.10
2017-04-10T12:01:38.156Z,10.10
2017-04-10T12:02:44.072Z,10.30
2017-04-10T12:03:50.047Z,10.20
2017-04-10T12:04:56.082Z,10.30
2017-04-10T12:06:02.093Z,10.20
2017-04-10T12:07:08.264Z,10.40
2017-04-10T12:08:14.304Z,10.40
2017-04-10T12:09:20.369Z,10.30
2017-04-10T12:10:26.382Z,10.30
2017-04-10T12:11:32.318Z,10.30
2017-04-10T12:12:38.280Z,10.40
2017-04-10T12:13:44.355Z,10.30
2017-04-10T12:14:50.272Z,10.50
2017-04-10T12:15:56.232Z,10.30
2017-04-10T12:17:02.288Z,10.20
2017-04-10T12:18:08.394Z,10.10
2017-04-10T12:19:15.100Z,10.20
2017-04-10T12:20:21.131Z,10.20
2017-04-10T12:21:27.176Z,10.60
2017-04-10T12:22:33.259Z,10.90
2017-04-10T12:23:39.779Z,11.40
2017-04-10T12:24:46.491Z,11.40
2017-04-10T12:25:52.506Z,11.00
2017-04-10T12:26:58.454Z,11.20
2017-04-10T12:28:04.788Z,11.20
2017-04-10T12:29:10.804Z,11.30
2017-04-10T12:30:16.728Z,11.50
2017-04-10T12:31:22.886Z,11.50
2017-04-10T12:32:28.831Z,11.40
2017-04-10T12:33:34.956Z,11.10
2017-04-10T12:34:41.269Z,11.20
2017-04-10T12:35:47.214Z,11.20
2017-04-10T12:36:53.294Z,11.50
2017-04-10T12:37:59.337Z,11.30
2017-04-10T12:39:05.775Z,11.30
2017-04-10T12:40:11.911Z,11.60
2017-04-10T12:41:18.861Z,11.50
2017-04-10T12:42:24.967Z,11.60
2017-04-10T12:43:31.035Z,11.60
2017-04-10T12:44:37.063Z,11.30
2017-04-10T12:48:46.513Z,11.70
2017-04-10T12:49:52.503Z,11.50
2017-04-10T12:50:58.580Z,11.60
2017-04-10T12:52:04.720Z,12.10
2017-04-10T12:53:10.680Z,12.60
2017-04-10T13:02:11.517Z,12.20
2017-04-10T13:04:58.944Z,12.10
2017-04-10T13:06:04.951Z,12.10
2017-04-10T13:07:10.830Z,12.20
2017-04-10T13:08:16.912Z,11.90
2017-04-10T13:09:23.067Z,11.90
2017-04-10T13:10:29.450Z,11.70
2017-04-10T13:11:35.684Z,11.40
2017-04-10T13:12:41.852Z,11.20
2017-04-10T13:13:48.069Z,11.10
2017-04-10T13:14:54.144Z,11.00
2017-04-10T13:16:00.147Z,11.20
2017-04-10T13:17:06.224Z,11.30
2017-04-10T13:18:12.499Z,11.30
2017-04-10T13:19:18.548Z,11.20
2017-04-10T13:20:25.341Z,11.10
2017-04-10T13:21:31.260Z,10.60
2017-04-10T13:22:37.285Z,10.70
2017-04-10T13:23:43.439Z,10.50
2017-04-10T13:24:49.661Z,10.50
2017-04-10T13:25:55.634Z,10.40
2017-04-10T13:27:01.639Z,10.40
2017-04-10T13:28:07.717Z,10.40
2017-04-10T13:29:13.669Z,10.50
2017-04-10T13:30:20.881Z,10.50
2017-04-10T13:31:26.866Z,10.40
2017-04-10T13:32:33.268Z,10.30
2017-04-10T13:33:40.143Z,10.30
2017-04-10T13:34:46.193Z,10.30
2017-04-10T13:35:52.187Z,10.20
2017-04-10T13:38:05.207Z,10.50
2017-04-10T13:39:11.219Z,10.40
2017-04-10T13:40:18.258Z,10.20
2017-04-10T13:41:24.397Z,10.00
2017-04-10T13:42:30.430Z,10.00
2017-04-10T13:43:37.325Z,10.10
2017-04-10T13:44:44.176Z,10.00
2017-04-10T13:45:50.520Z,10.20
2017-04-10T13:46:57.155Z,10.20
2017-04-10T13:48:03.231Z,10.30
2017-04-10T13:49:09.429Z,10.40
2017-04-10T13:50:15.460Z,10.30
2017-04-10T13:51:21.607Z,10.20
2017-04-10T13:52:28.411Z,10.20
2017-04-10T13:53:34.390Z,10.10
2017-04-10T13:54:41.283Z,10.00
2017-04-10T13:55:47.249Z,10.10
2017-04-10T13:56:52.487Z,10.10
2017-04-10T13:57:58.519Z,10.00
2017-04-10T13:59:04.605Z,10.10
2017-04-10T14:00:10.812Z,10.20
2017-04-10T14:01:16.803Z,10.20
2017-04-10T14:02:22.777Z,10.20
2017-04-10T14:03:28.634Z,10.30
2017-04-10T14:04:34.649Z,10.10
2017-04-10T14:05:40.783Z,10.00
2017-04-10T14:06:47.547Z,10.00
2017-04-10T14:07:54.365Z,10.10
2017-04-10T14:09:00.444Z,10.20
2017-04-10T14:10:06.486Z,10.20
2017-04-10T14:11:13.254Z,10.00
2017-04-10T14:12:19.940Z,10.10
2017-04-10T14:13:26.047Z,10.10
2017-04-10T14:14:31.953Z,10.10
2017-04-10T14:15:37.957Z,10.00
2017-04-10T14:16:44.084Z,10.00
2017-04-10T14:17:50.121Z,10.10
2017-04-10T14:18:56.556Z,9.90
2017-04-10T14:20:02.716Z,9.90
2017-04-10T14:21:09.232Z,10.00
2017-04-10T14:22:15.461Z,9.90
2017-04-10T14:23:21.406Z,9.90
2017-04-10T14:24:27.504Z,9.80
2017-04-10T14:25:33.469Z,9.80
2017-04-10T14:26:39.726Z,9.90
2017-04-10T14:27:46.379Z,9.90
2017-04-10T14:28:52.364Z,9.80
2017-04-10T14:29:58.407Z,9.80
2017-04-10T14:31:04.365Z,9.80
2017-04-10T14:32:11.263Z,9.70
2017-04-10T14:33:17.244Z,9.70
2017-04-10T14:34:23.345Z,9.70
2017-04-10T14:35:29.803Z,9.60
2017-04-10T14:36:36.607Z,9.40
2017-04-10T14:37:42.727Z,9.30
2017-04-10T14:38:49.470Z,9.20
2017-04-10T14:39:55.612Z,9.20
2017-04-10T14:41:01.861Z,9.00
2017-04-10T14:42:07.899Z,9.00
2017-04-10T14:43:13.962Z,9.00
2017-04-10T14:44:20.011Z,9.10
2017-04-10T14:45:26.062Z,9.10
2017-04-10T14:46:32.769Z,9.10
2017-04-10T14:47:38.964Z,9.20
2017-04-10T14:48:45.475Z,9.10
2017-04-10T14:49:52.441Z,9.00
2017-04-10T14:50:59.282Z,9.00
2017-04-10T14:52:05.945Z,9.00
2017-04-10T14:53:12.116Z,8.90
2017-04-10T14:54:18.433Z,8.80
2017-04-10T14:55:25.406Z,8.70
2017-04-10T14:56:31.858Z,8.80
2017-04-10T14:57:39.227Z,8.90
2017-04-10T14:58:45.510Z,8.80
2017-04-10T14:59:52.178Z,8.80
2017-04-10T15:00:59.016Z,8.90